Blairgowrie, United Kingdom
Current Conditions -  °F | °C
As of 3:50 AM on Sunday 26 Oct 2014 (Local Time) from EGQL Reporting Station
Broken Clouds Broken Clouds  
Wind Chill: 54°   Ceiling: 3000
Heat Index: 54°   Visibility: 6mi
Dew Point: 45°   Wind: 30mph
Humidity: 72%   Direction: 250°WSW
Pressure: 29.59"   Gusts: 41mph
Location:  56.59°N, 3.34°W
Report Text: EGQL 260250Z 25026G36KT 9999 BKN030 12/07 Q1002 BLU
Loading
Personal Weather Stations






























Interactive Weather Map
Tropical Storm Tracking
New forecast layout! Learn more

10-Day Weather Forecast

Advertisements
Track Severe Weather on mobile